sensor_id;sensor_type;location;lat;lon;timestamp;pressure;altitude;pressure_sealevel;temperature;humidity
4133;BME280;2080;51.038;7.008;2023-02-12T00:00:54;78228.19;;;-142.53;100.00
4133;BME280;2080;51.038;7.008;2023-02-12T00:03:19;78230.16;;;-142.53;100.00
4133;BME280;2080;51.038;7.008;2023-02-12T00:05:44;78247.63;;;-142.53;100.00
4133;BME280;2080;51.038;7.008;2023-02-12T00:08:10;78222.38;;;-142.53;100.00
4133;BME280;2080;51.038;7.008;2023-02-12T00:10:39;78220.44;;;-142.53;100.00
4133;BME280;2080;51.038;7.008;2023-02-12T00:13:07;78235.97;;;-142.53;100.00
4133;BME280;2080;51.038;7.008;2023-02-12T00:15:34;78243.75;;;-142.53;100.00
4133;BME280;2080;51.038;7.008;2023-02-12T00:18:02;78232.09;;;-142.53;100.00
4133;BME280;2080;51.038;7.008;2023-02-12T00:20:29;78220.44;;;-142.53;100.00
4133;BME280;2080;51.038;7.008;2023-02-12T00:22:57;78228.19;;;-142.53;100.00
4133;BME280;2080;51.038;7.008;2023-02-12T00:25:25;78228.19;;;-142.53;100.00
4133;BME280;2080;51.038;7.008;2023-02-12T00:27:50;78239.88;;;-142.53;100.00
4133;BME280;2080;51.038;7.008;2023-02-12T00:30:18;78263.19;;;-142.53;100.00
4133;BME280;2080;51.038;7.008;2023-02-12T00:32:44;78270.97;;;-142.53;100.00
4133;BME280;2080;51.038;7.008;2023-02-12T00:35:10;78263.19;;;-142.53;100.00
4133;BME280;2080;51.038;7.008;2023-02-12T00:37:38;78251.53;;;-142.53;100.00
4133;BME280;2080;51.038;7.008;2023-02-12T00:40:04;78251.53;;;-142.53;100.00
4133;BME280;2080;51.038;7.008;2023-02-12T00:42:30;78247.63;;;-142.53;100.00
4133;BME280;2080;51.038;7.008;2023-02-12T00:44:58;78237.91;;;-142.53;100.00
4133;BME280;2080;51.038;7.008;2023-02-12T00:47:23;78235.97;;;-142.53;100.00
4133;BME280;2080;51.038;7.008;2023-02-12T00:49:48;78247.63;;;-142.53;100.00
4133;BME280;2080;51.038;7.008;2023-02-12T00:52:19;78247.63;;;-142.53;100.00
4133;BME280;2080;51.038;7.008;2023-02-12T00:54:44;78251.53;;;-142.53;100.00
4133;BME280;2080;51.038;7.008;2023-02-12T00:57:09;78243.75;;;-142.53;100.00
4133;BME280;2080;51.038;7.008;2023-02-12T00:59:35;78259.28;;;-142.53;100.00
4133;BME280;2080;51.038;7.008;2023-02-12T01:02:02;78259.28;;;-142.53;100.00
4133;BME280;2080;51.038;7.008;2023-02-12T01:04:27;78255.41;;;-142.53;100.00
4133;BME280;2080;51.038;7.008;2023-02-12T01:06:53;78247.63;;;-142.53;100.00
4133;BME280;2080;51.038;7.008;2023-02-12T01:09:18;78259.28;;;-142.53;100.00
4133;BME280;2080;51.038;7.008;2023-02-12T01:11:43;78255.41;;;-142.53;100.00
4133;BME280;2080;51.038;7.008;2023-02-12T01:14:14;78257.34;;;-142.53;100.00
4133;BME280;2080;51.038;7.008;2023-02-12T01:16:41;78255.41;;;-142.53;100.00
4133;BME280;2080;51.038;7.008;2023-02-12T01:19:07;78259.28;;;-142.53;100.00
4133;BME280;2080;51.038;7.008;2023-02-12T01:21:34;78263.19;;;-142.53;100.00
4133;BME280;2080;51.038;7.008;2023-02-12T01:24:00;78272.91;;;-142.53;100.00
4133;BME280;2080;51.038;7.008;2023-02-12T01:26:27;78267.06;;;-142.53;100.00
4133;BME280;2080;51.038;7.008;2023-02-12T01:28:58;78263.19;;;-142.53;100.00
4133;BME280;2080;51.038;7.008;2023-02-12T01:31:29;78255.41;;;-142.53;100.00
4133;BME280;2080;51.038;7.008;2023-02-12T01:33:57;78253.47;;;-142.53;100.00
4133;BME280;2080;51.038;7.008;2023-02-12T01:36:24;78270.97;;;-142.53;100.00
4133;BME280;2080;51.038;7.008;2023-02-12T01:38:55;78259.28;;;-142.53;100.00
4133;BME280;2080;51.038;7.008;2023-02-12T01:41:27;78261.25;;;-142.53;100.00
4133;BME280;2080;51.038;7.008;2023-02-12T01:46:40;78265.13;;;-142.53;100.00
4133;BME280;2080;51.038;7.008;2023-02-12T01:49:12;78263.19;;;-142.53;100.00
4133;BME280;2080;51.038;7.008;2023-02-12T01:51:39;78261.25;;;-142.53;100.00
4133;BME280;2080;51.038;7.008;2023-02-12T01:54:10;78255.41;;;-142.53;100.00
4133;BME280;2080;51.038;7.008;2023-02-12T01:56:36;78259.28;;;-142.53;100.00
4133;BME280;2080;51.038;7.008;2023-02-12T01:59:02;78259.28;;;-142.53;100.00
4133;BME280;2080;51.038;7.008;2023-02-12T02:01:32;78259.28;;;-142.53;100.00
4133;BME280;2080;51.038;7.008;2023-02-12T02:04:04;78257.34;;;-142.53;100.00
4133;BME280;2080;51.038;7.008;2023-02-12T02:06:43;78267.06;;;-142.53;100.00
4133;BME280;2080;51.038;7.008;2023-02-12T02:09:10;78263.19;;;-142.53;100.00
4133;BME280;2080;51.038;7.008;2023-02-12T02:11:37;78255.41;;;-142.53;100.00
4133;BME280;2080;51.038;7.008;2023-02-12T02:14:23;78247.63;;;-142.53;100.00
4133;BME280;2080;51.038;7.008;2023-02-12T02:17:26;78255.41;;;-142.53;100.00
4133;BME280;2080;51.038;7.008;2023-02-12T02:41:34;78243.75;;;-142.53;100.00
4133;BME280;2080;51.038;7.008;2023-02-12T02:44:22;78239.88;;;-142.53;100.00
4133;BME280;2080;51.038;7.008;2023-02-12T02:46:50;78245.69;;;-142.53;100.00
4133;BME280;2080;51.038;7.008;2023-02-12T02:49:22;78247.63;;;-142.53;100.00
4133;BME280;2080;51.038;7.008;2023-02-12T02:51:53;78245.69;;;-142.53;100.00
4133;BME280;2080;51.038;7.008;2023-02-12T02:54:30;78239.88;;;-142.53;100.00
4133;BME280;2080;51.038;7.008;2023-02-12T02:57:25;78298.16;;;-142.53;100.00
4133;BME280;2080;51.038;7.008;2023-02-12T02:59:57;78309.81;;;-142.53;100.00
4133;BME280;2080;51.038;7.008;2023-02-12T03:02:27;78265.13;;;-142.53;100.00
4133;BME280;2080;51.038;7.008;2023-02-12T03:05:13;78263.19;;;-142.53;100.00
4133;BME280;2080;51.038;7.008;2023-02-12T03:08:05;78247.63;;;-142.53;100.00
4133;BME280;2080;51.038;7.008;2023-02-12T03:10:41;78251.53;;;-142.53;100.00
4133;BME280;2080;51.038;7.008;2023-02-12T03:13:27;78259.28;;;-142.53;100.00
4133;BME280;2080;51.038;7.008;2023-02-12T03:18:37;78249.59;;;-142.53;100.00
4133;BME280;2080;51.038;7.008;2023-02-12T03:21:11;78247.63;;;-142.53;100.00
4133;BME280;2080;51.038;7.008;2023-02-12T03:23:47;78241.81;;;-142.53;100.00
4133;BME280;2080;51.038;7.008;2023-02-12T03:26:25;78243.75;;;-142.53;100.00
4133;BME280;2080;51.038;7.008;2023-02-12T03:28:51;78235.97;;;-142.53;100.00
4133;BME280;2080;51.038;7.008;2023-02-12T03:31:39;78228.19;;;-142.53;100.00
4133;BME280;2080;51.038;7.008;2023-02-12T03:37:07;78235.97;;;-142.53;100.00
4133;BME280;2080;51.038;7.008;2023-02-12T03:39:48;78239.88;;;-142.53;100.00
4133;BME280;2080;51.038;7.008;2023-02-12T03:45:13;78216.53;;;-142.53;100.00
4133;BME280;2080;51.038;7.008;2023-02-12T03:47:45;78226.25;;;-142.53;100.00
4133;BME280;2080;51.038;7.008;2023-02-12T03:50:26;78228.19;;;-142.53;100.00
4133;BME280;2080;51.038;7.008;2023-02-12T03:52:56;78226.25;;;-142.53;100.00
4133;BME280;2080;51.038;7.008;2023-02-12T03:55:22;78228.19;;;-142.53;100.00
4133;BME280;2080;51.038;7.008;2023-02-12T03:57:51;78212.66;;;-142.53;100.00
4133;BME280;2080;51.038;7.008;2023-02-12T04:00:22;78230.16;;;-142.53;100.00
4133;BME280;2080;51.038;7.008;2023-02-12T04:02:51;78232.09;;;-142.53;100.00
4133;BME280;2080;51.038;7.008;2023-02-12T04:05:26;78251.53;;;-142.53;100.00
4133;BME280;2080;51.038;7.008;2023-02-12T04:07:53;78263.19;;;-142.53;100.00
4133;BME280;2080;51.038;7.008;2023-02-12T04:10:33;78274.84;;;-142.53;100.00
4133;BME280;2080;51.038;7.008;2023-02-12T04:13:18;78263.19;;;-142.53;100.00
4133;BME280;2080;51.038;7.008;2023-02-12T04:18:45;78286.50;;;-142.53;100.00
4133;BME280;2080;51.038;7.008;2023-02-12T04:21:12;78269.00;;;-142.53;100.00
4133;BME280;2080;51.038;7.008;2023-02-12T04:26:20;78282.63;;;-142.53;100.00
4133;BME280;2080;51.038;7.008;2023-02-12T04:31:38;78290.41;;;-142.53;100.00
4133;BME280;2080;51.038;7.008;2023-02-12T04:37:02;78278.72;;;-142.53;100.00
4133;BME280;2080;51.038;7.008;2023-02-12T04:39:30;78286.50;;;-142.53;100.00
4133;BME280;2080;51.038;7.008;2023-02-12T04:42:00;78286.50;;;-142.53;100.00
4133;BME280;2080;51.038;7.008;2023-02-12T04:44:28;78300.09;;;-142.53;100.00
4133;BME280;2080;51.038;7.008;2023-02-12T04:46:57;78296.22;;;-142.53;100.00
4133;BME280;2080;51.038;7.008;2023-02-12T04:49:26;78286.50;;;-142.53;100.00
4133;BME280;2080;51.038;7.008;2023-02-12T04:51:51;78294.28;;;-142.53;100.00
4133;BME280;2080;51.038;7.008;2023-02-12T04:54:21;78294.28;;;-142.53;100.00
4133;BME280;2080;51.038;7.008;2023-02-12T04:56:51;78298.16;;;-142.53;100.00
4133;BME280;2080;51.038;7.008;2023-02-12T04:59:21;78294.28;;;-142.53;100.00
4133;BME280;2080;51.038;7.008;2023-02-12T05:01:46;78305.94;;;-142.53;100.00
4133;BME280;2080;51.038;7.008;2023-02-12T05:04:16;78304.00;;;-142.53;100.00
4133;BME280;2080;51.038;7.008;2023-02-12T05:06:47;78309.81;;;-142.53;100.00
4133;BME280;2080;51.038;7.008;2023-02-12T05:09:18;78317.59;;;-142.53;100.00
4133;BME280;2080;51.038;7.008;2023-02-12T05:11:45;78309.81;;;-142.53;100.00
4133;BME280;2080;51.038;7.008;2023-02-12T05:14:11;78317.59;;;-142.53;100.00
4133;BME280;2080;51.038;7.008;2023-02-12T05:16:36;78321.47;;;-142.53;100.00
4133;BME280;2080;51.038;7.008;2023-02-12T05:19:02;78313.72;;;-142.53;100.00
4133;BME280;2080;51.038;7.008;2023-02-12T05:21:27;78321.47;;;-142.53;100.00
4133;BME280;2080;51.038;7.008;2023-02-12T05:23:52;78319.53;;;-142.53;100.00
4133;BME280;2080;51.038;7.008;2023-02-12T05:26:20;78309.81;;;-142.53;100.00
4133;BME280;2080;51.038;7.008;2023-02-12T05:28:46;78323.44;;;-142.53;100.00
4133;BME280;2080;51.038;7.008;2023-02-12T05:31:18;78325.38;;;-142.53;100.00
4133;BME280;2080;51.038;7.008;2023-02-12T05:33:47;78329.25;;;-142.53;100.00
4133;BME280;2080;51.038;7.008;2023-02-12T05:36:17;78329.25;;;-142.53;100.00
4133;BME280;2080;51.038;7.008;2023-02-12T05:38:48;78325.38;;;-142.53;100.00
4133;BME280;2080;51.038;7.008;2023-02-12T05:41:19;78346.75;;;-142.53;100.00
4133;BME280;2080;51.038;7.008;2023-02-12T05:43:46;78333.16;;;-142.53;100.00
4133;BME280;2080;51.038;7.008;2023-02-12T05:46:13;78323.44;;;-142.53;100.00
4133;BME280;2080;51.038;7.008;2023-02-12T05:48:41;78321.47;;;-142.53;100.00
4133;BME280;2080;51.038;7.008;2023-02-12T05:51:10;78321.47;;;-142.53;100.00
4133;BME280;2080;51.038;7.008;2023-02-12T05:53:36;78337.03;;;-142.53;100.00
4133;BME280;2080;51.038;7.008;2023-02-12T05:58:36;78337.03;;;-142.53;100.00
4133;BME280;2080;51.038;7.008;2023-02-12T06:01:02;78333.16;;;-142.53;100.00
4133;BME280;2080;51.038;7.008;2023-02-12T06:03:27;78325.38;;;-142.53;100.00
4133;BME280;2080;51.038;7.008;2023-02-12T06:05:52;78333.16;;;-142.53;100.00
4133;BME280;2080;51.038;7.008;2023-02-12T06:08:18;78337.03;;;-142.53;100.00
4133;BME280;2080;51.038;7.008;2023-02-12T06:10:43;78325.38;;;-142.53;100.00
4133;BME280;2080;51.038;7.008;2023-02-12T06:13:11;78335.09;;;-142.53;100.00
4133;BME280;2080;51.038;7.008;2023-02-12T06:15:38;78325.38;;;-142.53;100.00
4133;BME280;2080;51.038;7.008;2023-02-12T06:18:04;78337.03;;;-142.53;100.00
4133;BME280;2080;51.038;7.008;2023-02-12T06:20:29;78340.91;;;-142.53;100.00
4133;BME280;2080;51.038;7.008;2023-02-12T06:22:54;78335.09;;;-142.53;100.00
4133;BME280;2080;51.038;7.008;2023-02-12T06:25:20;78338.97;;;-142.53;100.00
4133;BME280;2080;51.038;7.008;2023-02-12T06:27:49;78340.91;;;-142.53;100.00
4133;BME280;2080;51.038;7.008;2023-02-12T06:30:15;78337.03;;;-142.53;100.00
4133;BME280;2080;51.038;7.008;2023-02-12T06:32:40;78333.16;;;-142.53;100.00
4133;BME280;2080;51.038;7.008;2023-02-12T06:35:06;78340.91;;;-142.53;100.00
4133;BME280;2080;51.038;7.008;2023-02-12T06:37:31;78340.91;;;-142.53;100.00
4133;BME280;2080;51.038;7.008;2023-02-12T06:39:57;78350.63;;;-142.53;100.00
4133;BME280;2080;51.038;7.008;2023-02-12T06:42:24;78346.75;;;-142.53;100.00
4133;BME280;2080;51.038;7.008;2023-02-12T06:44:50;78340.91;;;-142.53;100.00
4133;BME280;2080;51.038;7.008;2023-02-12T06:47:15;78340.91;;;-142.53;100.00
4133;BME280;2080;51.038;7.008;2023-02-12T06:49:40;78337.03;;;-142.53;100.00
4133;BME280;2080;51.038;7.008;2023-02-12T06:52:06;78340.91;;;-142.53;100.00
4133;BME280;2080;51.038;7.008;2023-02-12T06:54:31;78327.31;;;-142.53;100.00
4133;BME280;2080;51.038;7.008;2023-02-12T06:56:56;78325.38;;;-142.53;100.00
4133;BME280;2080;51.038;7.008;2023-02-12T06:59:22;78325.38;;;-142.53;100.00
4133;BME280;2080;51.038;7.008;2023-02-12T07:01:47;78340.91;;;-142.53;100.00
4133;BME280;2080;51.038;7.008;2023-02-12T07:04:13;78340.91;;;-142.53;100.00
4133;BME280;2080;51.038;7.008;2023-02-12T07:06:38;78335.09;;;-142.53;100.00
4133;BME280;2080;51.038;7.008;2023-02-12T07:09:06;78337.03;;;-142.53;100.00
4133;BME280;2080;51.038;7.008;2023-02-12T07:11:35;78337.03;;;-142.53;100.00
4133;BME280;2080;51.038;7.008;2023-02-12T07:14:01;78329.25;;;-142.53;100.00
4133;BME280;2080;51.038;7.008;2023-02-12T07:16:28;78323.44;;;-142.53;100.00
4133;BME280;2080;51.038;7.008;2023-02-12T07:18:54;78321.47;;;-142.53;100.00
4133;BME280;2080;51.038;7.008;2023-02-12T07:21:20;78329.25;;;-142.53;100.00
4133;BME280;2080;51.038;7.008;2023-02-12T07:23:50;78317.59;;;-142.53;100.00
4133;BME280;2080;51.038;7.008;2023-02-12T07:26:16;78315.66;;;-142.53;100.00
4133;BME280;2080;51.038;7.008;2023-02-12T07:28:42;78302.06;;;-142.53;100.00
4133;BME280;2080;51.038;7.008;2023-02-12T07:31:12;78302.06;;;-142.53;100.00
4133;BME280;2080;51.038;7.008;2023-02-12T07:33:42;78309.81;;;-142.53;100.00
4133;BME280;2080;51.038;7.008;2023-02-12T07:36:11;78296.22;;;-142.53;100.00
4133;BME280;2080;51.038;7.008;2023-02-12T07:38:37;78294.28;;;-142.53;100.00
4133;BME280;2080;51.038;7.008;2023-02-12T07:41:10;78294.28;;;-142.53;100.00
4133;BME280;2080;51.038;7.008;2023-02-12T07:43:39;78290.41;;;-142.53;100.00
4133;BME280;2080;51.038;7.008;2023-02-12T07:46:11;78290.41;;;-142.53;100.00
4133;BME280;2080;51.038;7.008;2023-02-12T07:48:40;78286.50;;;-142.53;100.00
4133;BME280;2080;51.038;7.008;2023-02-12T07:51:08;78274.84;;;-142.53;100.00
4133;BME280;2080;51.038;7.008;2023-02-12T07:53:34;78274.84;;;-142.53;100.00
4133;BME280;2080;51.038;7.008;2023-02-12T07:56:20;78267.06;;;-142.53;100.00
4133;BME280;2080;51.038;7.008;2023-02-12T07:58:48;78251.53;;;-142.53;100.00
4133;BME280;2080;51.038;7.008;2023-02-12T08:01:24;78249.59;;;-142.53;100.00
4133;BME280;2080;51.038;7.008;2023-02-12T08:03:51;78251.53;;;-142.53;100.00
4133;BME280;2080;51.038;7.008;2023-02-12T08:06:25;78259.28;;;-142.53;100.00
4133;BME280;2080;51.038;7.008;2023-02-12T08:08:55;78243.75;;;-142.53;100.00
4133;BME280;2080;51.038;7.008;2023-02-12T08:11:22;78235.97;;;-142.53;100.00
4133;BME280;2080;51.038;7.008;2023-02-12T08:13:50;78224.31;;;-142.53;100.00
4133;BME280;2080;51.038;7.008;2023-02-12T08:16:22;78214.59;;;-142.53;100.00
4133;BME280;2080;51.038;7.008;2023-02-12T08:18:48;78216.53;;;-142.53;100.00
4133;BME280;2080;51.038;7.008;2023-02-12T08:21:16;78204.88;;;-142.53;100.00
4133;BME280;2080;51.038;7.008;2023-02-12T08:23:45;78199.06;;;-142.53;100.00
4133;BME280;2080;51.038;7.008;2023-02-12T08:26:18;78189.34;;;-142.53;100.00
4133;BME280;2080;51.038;7.008;2023-02-12T08:28:54;78166.03;;;-142.53;100.00
4133;BME280;2080;51.038;7.008;2023-02-12T08:31:22;78148.53;;;-142.53;100.00
4133;BME280;2080;51.038;7.008;2023-02-12T08:33:51;78150.47;;;-142.53;100.00
4133;BME280;2080;51.038;7.008;2023-02-12T08:36:21;78154.34;;;-142.53;100.00
4133;BME280;2080;51.038;7.008;2023-02-12T08:38:47;78136.88;;;-142.53;100.00
4133;BME280;2080;51.038;7.008;2023-02-12T08:41:24;78119.38;;;-142.53;100.00
4133;BME280;2080;51.038;7.008;2023-02-12T08:43:53;78109.66;;;-142.53;100.00
4133;BME280;2080;51.038;7.008;2023-02-12T08:46:21;78099.94;;;-142.53;100.00
4133;BME280;2080;51.038;7.008;2023-02-12T08:48:47;78082.44;;;-142.53;100.00
4133;BME280;2080;51.038;7.008;2023-02-12T08:51:17;78080.50;;;-142.53;100.00
4133;BME280;2080;51.038;7.008;2023-02-12T08:53:47;78078.56;;;-142.53;100.00
4133;BME280;2080;51.038;7.008;2023-02-12T08:56:17;78045.53;;;-142.53;100.00
4133;BME280;2080;51.038;7.008;2023-02-12T08:58:44;78029.97;;;-142.53;100.00
4133;BME280;2080;51.038;7.008;2023-02-12T09:01:12;78026.09;;;-142.53;100.00
4133;BME280;2080;51.038;7.008;2023-02-12T09:03:38;78022.22;;;-142.53;100.00
4133;BME280;2080;51.038;7.008;2023-02-12T09:06:07;78014.44;;;-142.53;100.00
4133;BME280;2080;51.038;7.008;2023-02-12T09:08:33;78008.59;;;-142.53;100.00
4133;BME280;2080;51.038;7.008;2023-02-12T09:11:00;77989.19;;;-142.53;100.00
4133;BME280;2080;51.038;7.008;2023-02-12T09:13:27;77991.13;;;-142.53;100.00
4133;BME280;2080;51.038;7.008;2023-02-12T09:15:53;77971.69;;;-142.53;100.00
4133;BME280;2080;51.038;7.008;2023-02-12T09:18:18;77967.81;;;-142.53;100.00
4133;BME280;2080;51.038;7.008;2023-02-12T09:20:43;77983.34;;;-142.53;100.00
4133;BME280;2080;51.038;7.008;2023-02-12T09:23:11;77983.34;;;-142.53;100.00
4133;BME280;2080;51.038;7.008;2023-02-12T09:25:41;77967.81;;;-142.53;100.00
4133;BME280;2080;51.038;7.008;2023-02-12T09:28:07;77963.91;;;-142.53;100.00
4133;BME280;2080;51.038;7.008;2023-02-12T09:30:34;77954.19;;;-142.53;100.00
4133;BME280;2080;51.038;7.008;2023-02-12T09:33:00;77948.38;;;-142.53;100.00
4133;BME280;2080;51.038;7.008;2023-02-12T09:35:27;77940.59;;;-142.53;100.00
4133;BME280;2080;51.038;7.008;2023-02-12T09:37:53;77925.06;;;-142.53;100.00
4133;BME280;2080;51.038;7.008;2023-02-12T09:40:35;77905.63;;;-142.53;100.00
4133;BME280;2080;51.038;7.008;2023-02-12T09:43:41;77890.06;;;-142.53;100.00
4133;BME280;2080;51.038;7.008;2023-02-12T09:46:09;77886.19;;;-142.53;100.00
4133;BME280;2080;51.038;7.008;2023-02-12T09:51:26;77948.38;;;-142.53;100.00
4133;BME280;2080;51.038;7.008;2023-02-12T09:54:04;77919.22;;;-142.53;100.00
4133;BME280;2080;51.038;7.008;2023-02-12T09:56:36;77909.50;;;-142.53;100.00
4133;BME280;2080;51.038;7.008;2023-02-12T09:59:06;77913.38;;;-142.53;100.00
4133;BME280;2080;51.038;7.008;2023-02-12T10:01:35;77901.72;;;-142.53;100.00
4133;BME280;2080;51.038;7.008;2023-02-12T10:04:03;77868.69;;;-142.53;100.00
4133;BME280;2080;51.038;7.008;2023-02-12T10:06:45;77841.50;;;-142.53;100.00
4133;BME280;2080;51.038;7.008;2023-02-12T10:12:34;77794.84;;;-142.53;100.00
4133;BME280;2080;51.038;7.008;2023-02-12T10:20:37;77789.03;;;-142.53;100.00
4133;BME280;2080;51.038;7.008;2023-02-12T10:23:24;77792.91;;;-142.53;99.57
4133;BME280;2080;51.038;7.008;2023-02-12T10:25:57;77769.59;;;-142.53;97.34
4133;BME280;2080;51.038;7.008;2023-02-12T10:30:57;77742.41;;;-142.53;97.23
4133;BME280;2080;51.038;7.008;2023-02-12T10:33:40;77722.97;;;-142.53;96.80
4133;BME280;2080;51.038;7.008;2023-02-12T10:36:36;77699.66;;;-142.53;95.46
4133;BME280;2080;51.038;7.008;2023-02-12T10:44:16;77664.66;;;-142.53;92.14
4133;BME280;2080;51.038;7.008;2023-02-12T10:46:42;77680.22;;;-142.53;90.66
4133;BME280;2080;51.038;7.008;2023-02-12T10:49:10;77660.78;;;-142.53;88.85
4133;BME280;2080;51.038;7.008;2023-02-12T10:51:45;77645.25;;;-142.53;88.97
4133;BME280;2080;51.038;7.008;2023-02-12T10:59:49;77585.00;;;-142.53;87.13
4133;BME280;2080;51.038;7.008;2023-02-12T11:02:19;77612.22;;;-142.53;85.56
4133;BME280;2080;51.038;7.008;2023-02-12T11:04:45;77641.34;;;-142.53;86.49
4133;BME280;2080;51.038;7.008;2023-02-12T11:07:11;77629.69;;;-142.53;85.55
4133;BME280;2080;51.038;7.008;2023-02-12T11:09:37;77625.81;;;-142.53;86.33
4133;BME280;2080;51.038;7.008;2023-02-12T11:12:32;77621.94;;;-142.53;82.50
4133;BME280;2080;51.038;7.008;2023-02-12T11:15:12;77641.34;;;-142.53;85.56
4133;BME280;2080;51.038;7.008;2023-02-12T11:17:43;77629.69;;;-142.53;85.82
4133;BME280;2080;51.038;7.008;2023-02-12T11:23:22;77621.94;;;-142.53;83.02
4133;BME280;2080;51.038;7.008;2023-02-12T11:28:56;77707.41;;;-142.53;84.67
4133;BME280;2080;51.038;7.008;2023-02-12T11:31:31;77678.28;;;-142.53;84.47
4133;BME280;2080;51.038;7.008;2023-02-12T11:34:16;77656.91;;;-142.53;84.50
4133;BME280;2080;51.038;7.008;2023-02-12T11:36:49;77684.09;;;-142.53;82.58
4133;BME280;2080;51.038;7.008;2023-02-12T11:41:53;77707.41;;;-142.53;85.70
4133;BME280;2080;51.038;7.008;2023-02-12T11:44:23;77688.00;;;-142.53;86.07
4133;BME280;2080;51.038;7.008;2023-02-12T11:46:59;77688.00;;;-142.53;82.76
4133;BME280;2080;51.038;7.008;2023-02-12T11:49:31;77703.53;;;-142.53;86.02
4133;BME280;2080;51.038;7.008;2023-02-12T11:52:01;77707.41;;;-142.53;84.83
4133;BME280;2080;51.038;7.008;2023-02-12T11:54:31;77664.66;;;-142.53;81.21
4133;BME280;2080;51.038;7.008;2023-02-12T11:57:01;77691.88;;;-142.53;83.40
4133;BME280;2080;51.038;7.008;2023-02-12T11:59:31;77680.22;;;-142.53;86.48
4133;BME280;2080;51.038;7.008;2023-02-12T12:02:00;77703.53;;;-142.53;85.88
4133;BME280;2080;51.038;7.008;2023-02-12T12:04:30;77678.28;;;-142.53;85.62
4133;BME280;2080;51.038;7.008;2023-02-12T12:07:04;77668.56;;;-142.53;84.06
4133;BME280;2080;51.038;7.008;2023-02-12T12:09:48;77649.13;;;-142.53;83.77
4133;BME280;2080;51.038;7.008;2023-02-12T12:12:27;77633.59;;;-142.53;83.42
4133;BME280;2080;51.038;7.008;2023-02-12T12:15:02;77598.59;;;-142.53;80.90
4133;BME280;2080;51.038;7.008;2023-02-12T12:17:56;77598.59;;;-142.53;83.13
4133;BME280;2080;51.038;7.008;2023-02-12T12:21:00;77548.09;;;-142.53;83.21
4133;BME280;2080;51.038;7.008;2023-02-12T12:23:47;77513.13;;;-142.53;83.34
4133;BME280;2080;51.038;7.008;2023-02-12T12:26:30;77526.72;;;-142.53;81.79
4133;BME280;2080;51.038;7.008;2023-02-12T12:31:45;77505.34;;;-142.53;80.91
4133;BME280;2080;51.038;7.008;2023-02-12T12:34:17;77497.56;;;-142.53;79.74
4133;BME280;2080;51.038;7.008;2023-02-12T12:49:55;77485.91;;;-142.53;82.95
4133;BME280;2080;51.038;7.008;2023-02-12T13:03:23;77398.47;;;-142.53;79.46
4133;BME280;2080;51.038;7.008;2023-02-12T13:20:35;77466.50;;;-142.53;80.03
4133;BME280;2080;51.038;7.008;2023-02-12T13:23:33;77458.72;;;-142.53;78.77
4133;BME280;2080;51.038;7.008;2023-02-12T13:27:04;77458.72;;;-142.53;81.13
4133;BME280;2080;51.038;7.008;2023-02-12T13:29:26;77443.16;;;-142.53;81.54
4133;BME280;2080;51.038;7.008;2023-02-12T13:34:23;77431.50;;;-142.53;82.89
4133;BME280;2080;51.038;7.008;2023-02-12T13:36:54;77439.28;;;-142.53;82.96
4133;BME280;2080;51.038;7.008;2023-02-12T13:39:35;77441.22;;;-142.53;81.73
4133;BME280;2080;51.038;7.008;2023-02-12T13:44:39;77398.47;;;-142.53;81.31
4133;BME280;2080;51.038;7.008;2023-02-12T13:47:29;77454.81;;;-142.53;79.64
4133;BME280;2080;51.038;7.008;2023-02-12T13:53:01;77450.94;;;-142.53;80.55
4133;BME280;2080;51.038;7.008;2023-02-12T13:55:40;77419.84;;;-142.53;82.29
4133;BME280;2080;51.038;7.008;2023-02-12T14:01:02;77392.66;;;-142.53;81.56
4133;BME280;2080;51.038;7.008;2023-02-12T14:03:30;77414.03;;;-142.53;79.47
4133;BME280;2080;51.038;7.008;2023-02-12T14:06:25;77412.09;;;-142.53;81.07
4133;BME280;2080;51.038;7.008;2023-02-12T14:09:09;77408.19;;;-142.53;80.40
4133;BME280;2080;51.038;7.008;2023-02-12T14:11:49;77408.19;;;-142.53;82.11
4133;BME280;2080;51.038;7.008;2023-02-12T14:14:44;77423.75;;;-142.53;81.03
4133;BME280;2080;51.038;7.008;2023-02-12T14:20:21;77435.41;;;-142.53;80.91
4133;BME280;2080;51.038;7.008;2023-02-12T14:27:57;77517.00;;;-142.53;84.09
4133;BME280;2080;51.038;7.008;2023-02-12T14:30:35;77544.22;;;-142.53;84.68
4133;BME280;2080;51.038;7.008;2023-02-12T14:35:34;77544.22;;;-142.53;85.57
4133;BME280;2080;51.038;7.008;2023-02-12T14:40:50;77509.22;;;-142.53;83.79
4133;BME280;2080;51.038;7.008;2023-02-12T14:43:23;77509.22;;;-142.53;84.87
4133;BME280;2080;51.038;7.008;2023-02-12T14:45:54;77517.00;;;-142.53;83.37
4133;BME280;2080;51.038;7.008;2023-02-12T14:48:46;77559.75;;;-142.53;85.24
4133;BME280;2080;51.038;7.008;2023-02-12T14:54:04;77544.22;;;-142.53;84.25
4133;BME280;2080;51.038;7.008;2023-02-12T14:56:46;77563.63;;;-142.53;84.62
4133;BME280;2080;51.038;7.008;2023-02-12T14:59:21;77590.84;;;-142.53;86.76
4133;BME280;2080;51.038;7.008;2023-02-12T15:01:51;77598.59;;;-142.53;87.65
4133;BME280;2080;51.038;7.008;2023-02-12T15:04:33;77598.59;;;-142.53;87.68
4133;BME280;2080;51.038;7.008;2023-02-12T15:07:08;77590.84;;;-142.53;88.16
4133;BME280;2080;51.038;7.008;2023-02-12T15:09:41;77586.94;;;-142.53;88.72
4133;BME280;2080;51.038;7.008;2023-02-12T15:12:16;77579.19;;;-142.53;88.61
4133;BME280;2080;51.038;7.008;2023-02-12T15:14:49;77579.19;;;-142.53;88.44
4133;BME280;2080;51.038;7.008;2023-02-12T15:17:20;77583.06;;;-142.53;88.47
4133;BME280;2080;51.038;7.008;2023-02-12T15:20:00;77594.72;;;-142.53;88.33
4133;BME280;2080;51.038;7.008;2023-02-12T15:25:23;77594.72;;;-142.53;88.75
4133;BME280;2080;51.038;7.008;2023-02-12T15:27:53;77594.72;;;-142.53;88.58
4133;BME280;2080;51.038;7.008;2023-02-12T15:30:25;77596.66;;;-142.53;89.09
4133;BME280;2080;51.038;7.008;2023-02-12T15:32:56;77598.59;;;-142.53;89.59
4133;BME280;2080;51.038;7.008;2023-02-12T15:37:53;77586.94;;;-142.53;87.36
4133;BME280;2080;51.038;7.008;2023-02-12T15:40:22;77602.50;;;-142.53;88.97
4133;BME280;2080;51.038;7.008;2023-02-12T15:42:58;77618.03;;;-142.53;89.56
4133;BME280;2080;51.038;7.008;2023-02-12T15:45:27;77621.94;;;-142.53;89.97
4133;BME280;2080;51.038;7.008;2023-02-12T15:50:30;77612.22;;;-142.53;89.95